Neva — MCNR — position and weather

sailwx.info

Track history (hours):
 
Tides and Currents Weather Stations Pressure Air Temp Water Temp Dewpoint Dewpoint Depression Visibility Wind Speed Wind Dir Waves Ship Positions

Neva

Last reported at 2018-Jun-18 13:18 UTC. Time now 2018-Jun-19 10:38 UTC.
Position N 22°30' E 119°43'.

Length 172 m; draft 7.4 m.

Type: Cargo ship. MMSI: 235012099.

Date/timePositionNaut miles runAvg speedWind from/ knotsBaromVisibWave heightAir tempDewpointWater temp
2018-Jun-18 13:18N 22°30' E 119°43'413.8
2018-Jun-18 13:00N 22°31' E 119°47'713.7
2018-Jun-18 12:30N 22°33' E 119°54'611.5
2018-Jun-18 12:00N 22°35' E 120°00'611.6
2018-Jun-18 11:30N 22°37' E 120°06'611.4
2018-Jun-18 11:00N 22°38' E 120°12'5 9.5
2018-Jun-18 10:30N 22°36' E 120°17'3 3.3
2018-Jun-18 09:31N 22°34' E 120°19'0 0.1
2018-Jun-18 09:26N 22°34' E 120°19'0 0.0
2018-Jun-18 08:55N 22°34' E 120°19'0 0.0
2018-Jun-18 08:25N 22°34' E 120°19'0 0.0
2018-Jun-18 06:20N 22°34' E 120°19'0 0.0
2018-Jun-18 05:56N 22°34' E 120°19'0 0.1
2018-Jun-18 05:28N 22°34' E 120°19'2 5.2
2018-Jun-18 05:00N 22°33' E 120°17'3 5.8
2018-Jun-18 04:30N 22°32' E 120°14'2 3.5
2018-Jun-18 04:00N 22°32' E 120°12'3 5.4
2018-Jun-18 03:30N 22°34' E 120°10'4 8.2
2018-Jun-18 03:00N 22°37' E 120°07'5 9.6
2018-Jun-18 02:30N 22°41' E 120°04'510.3
2018-Jun-18 02:00N 22°45' E 120°01'611.4
2018-Jun-18 01:30N 22°50' E 119°57'612.8
2018-Jun-18 01:00N 22°56' E 119°56'  
2018-Jun-14 00:15N 35°02' E 129°09'312.3
2018-Jun-14 00:00N 35°04' E 129°07'2 4.0
2018-Jun-13 23:28N 35°06' E 129°05'0 0.0
2018-Jun-13 23:01N 35°06' E 129°05'0 0.0
2018-Jun-13 22:28N 35°06' E 129°05'0 0.0
2018-Jun-13 21:58N 35°06' E 129°05'0 0.0
2018-Jun-13 21:28N 35°06' E 129°05'0 0.0
2018-Jun-13 21:01N 35°06' E 129°05'0 0.0
2018-Jun-13 20:28N 35°06' E 129°05'0 0.0
2018-Jun-13 19:58N 35°06' E 129°05'0 0.0
2018-Jun-13 19:28N 35°06' E 129°05'0 0.0
2018-Jun-13 18:58N 35°06' E 129°05'0 0.0
2018-Jun-13 18:28N 35°06' E 129°05'0 0.0
2018-Jun-13 17:58N 35°06' E 129°05'0 0.0
2018-Jun-13 17:31N 35°06' E 129°05'0 0.0
2018-Jun-13 16:58N 35°06' E 129°05'0 0.0
2018-Jun-13 16:28N 35°06' E 129°05'0 0.0
2018-Jun-13 15:58N 35°06' E 129°05'0 0.0
2018-Jun-13 15:31N 35°06' E 129°05'0 0.0
2018-Jun-13 14:58N 35°06' E 129°05'0 0.0
2018-Jun-13 14:28N 35°06' E 129°05'0 0.0
2018-Jun-13 13:58N 35°06' E 129°05'0 0.0
2018-Jun-13 13:28N 35°06' E 129°05'0 0.0
2018-Jun-13 12:58N 35°06' E 129°05'0 0.0
2018-Jun-13 12:28N 35°06' E 129°05'0 0.0
2018-Jun-13 11:55N 35°06' E 129°05'0 0.0
2018-Jun-13 11:28N 35°06' E 129°05'2 3.6
2018-Jun-13 11:00N 35°05' E 129°06'5 8.5
2018-Jun-13 10:27N 35°01' E 129°09'  
2018-Jun-09 12:20N 18°04' W 063°05'0 0.0
2018-Jun-09 11:56N 18°04' W 063°05'0 0.0
2018-Jun-09 11:26N 18°04' W 063°05'0 0.0
2018-Jun-09 10:56N 18°04' W 063°05'0 0.0
2018-Jun-09 10:27N 18°04' W 063°05'0 0.0
2018-Jun-09 09:53N 18°04' W 063°05'0 0.0
2018-Jun-09 09:14N 18°04' W 063°05'0 0.0
2018-Jun-09 08:59N 18°04' W 063°05'0 0.0
2018-Jun-09 08:29N 18°04' W 063°05'0 0.0
2018-Jun-09 07:56N 18°04' W 063°05'0 0.0
2018-Jun-09 07:29N 18°04' W 063°05'0 0.0
2018-Jun-09 06:59N 18°04' W 063°05'0 0.0
2018-Jun-09 06:17N 18°04' W 063°05'0 0.0
2018-Jun-09 05:59N 18°04' W 063°05'0 0.0
2018-Jun-09 05:29N 18°04' W 063°05'0 0.0
2018-Jun-09 04:47N 18°04' W 063°05'0 0.0
2018-Jun-09 04:29N 18°04' W 063°05'0 0.0
2018-Jun-09 03:59N 18°04' W 063°05'0 0.0
2018-Jun-09 03:29N 18°04' W 063°05'0 0.0
2018-Jun-09 02:59N 18°04' W 063°05'0 0.0
2018-Jun-09 02:20N 18°04' W 063°05'0 0.0
2018-Jun-09 01:50N 18°04' W 063°05'0 0.0
2018-Jun-09 01:23N 18°04' W 063°05'0 0.0
2018-Jun-09 00:53N 18°04' W 063°05'0 0.0
2018-Jun-09 00:17N 18°04' W 063°05'0 0.0
2018-Jun-08 23:39N 18°04' W 063°05'0 0.0
2018-Jun-08 23:23N 18°04' W 063°05'0 0.0
2018-Jun-08 22:53N 18°04' W 063°05'0 0.0
2018-Jun-08 22:23N 18°04' W 063°05'0 0.0
2018-Jun-08 21:38N 18°04' W 063°05'10290352799.8
2018-Jun-08 21:36N 22°54' E 119°55'216.7
2018-Jun-08 21:30N 22°53' E 119°56'1029160536.5
2018-Jun-08 21:20N 18°04' W 063°05'1029731549.6
2018-Jun-08 21:00N 22°45' E 119°58'1029759313.3
2018-Jun-08 20:50N 18°04' W 063°05'1030331567.1
2018-Jun-08 20:30N 22°40' E 120°01'10303148961.3
2018-Jun-08 20:26N 18°04' W 063°05'1030923912.5
2018-Jun-08 20:00N 22°35' E 120°04'1030983774.7
2018-Jun-08 19:53N 18°04' W 063°05'1031526987.9
2018-Jun-08 19:30N 22°33' E 120°10'10315151573.0
2018-Jun-08 19:26N 18°04' W 063°05'1032124221.7
2018-Jun-08 19:01N 22°33' E 120°16'10321139684.6
2018-Jun-08 18:56N 18°04' W 063°05'0 0.0
2018-Jun-08 18:29N 18°04' W 063°05'10323186755.1
2018-Jun-08 18:26N 22°34' E 120°19'1032320984.9
2018-Jun-08 17:56N 18°04' W 063°05'1032395538.0
2018-Jun-08 17:50N 22°34' E 120°19'1032330387.8
2018-Jun-08 17:29N 18°04' W 063°05'0 0.0
2018-Jun-08 16:56N 18°04' W 063°05'1032333541.8
2018-Jun-08 16:38N 22°34' E 120°19'1032352790.2
2018-Jun-08 16:26N 18°04' W 063°05'103232186134.2
2018-Jun-08 16:26N 22°34' E 120°19'0 0.0
2018-Jun-08 15:50N 22°34' E 120°19'10323108035.7
2018-Jun-08 15:44N 18°04' W 063°05'0 0.0
2018-Jun-08 15:29N 18°04' W 063°05'10323187698.3
2018-Jun-08 15:26N 22°34' E 120°19'1032323198.7
2018-Jun-08 14:59N 18°04' W 063°05'10323190586.1
2018-Jun-08 14:56N 22°34' E 120°19'1032323169.8
2018-Jun-08 14:29N 18°04' W 063°05'10323187698.3
2018-Jun-08 14:26N 22°34' E 120°19'1032323184.2
2018-Jun-08 13:59N 18°04' W 063°05'10323188651.1
2018-Jun-08 13:56N 22°34' E 120°19'1032323184.2
2018-Jun-08 13:29N 18°04' W 063°05'  
Track history (hours):
 
Tides and Currents Weather Stations Pressure Air Temp Water Temp Dewpoint Dewpoint Depression Visibility Wind Speed Wind Dir Waves Ship Positions

Neva

Last reported at 2018-Jun-18 13:18 UTC. Time now 2018-Jun-19 10:38 UTC.
Position N 22°30' E 119°43'.

Length 172 m; draft 7.4 m.

Type: Cargo ship. MMSI: 235012099.

Date/timePositionNaut miles runAvg speedWind from/ knotsBaromVisibWave heightAir tempDewpointWater temp
2018-Jun-18 13:18N 22°30' E 119°43'413.8
2018-Jun-18 13:00N 22°31' E 119°47'713.7
2018-Jun-18 12:30N 22°33' E 119°54'611.5
2018-Jun-18 12:00N 22°35' E 120°00'611.6
2018-Jun-18 11:30N 22°37' E 120°06'611.4
2018-Jun-18 11:00N 22°38' E 120°12'5 9.5
2018-Jun-18 10:30N 22°36' E 120°17'3 3.3
2018-Jun-18 09:31N 22°34' E 120°19'0 0.1
2018-Jun-18 09:26N 22°34' E 120°19'0 0.0
2018-Jun-18 08:55N 22°34' E 120°19'0 0.0
2018-Jun-18 08:25N 22°34' E 120°19'0 0.0
2018-Jun-18 06:20N 22°34' E 120°19'0 0.0
2018-Jun-18 05:56N 22°34' E 120°19'0 0.1
2018-Jun-18 05:28N 22°34' E 120°19'2 5.2
2018-Jun-18 05:00N 22°33' E 120°17'3 5.8
2018-Jun-18 04:30N 22°32' E 120°14'2 3.5
2018-Jun-18 04:00N 22°32' E 120°12'3 5.4
2018-Jun-18 03:30N 22°34' E 120°10'4 8.2
2018-Jun-18 03:00N 22°37' E 120°07'5 9.6
2018-Jun-18 02:30N 22°41' E 120°04'510.3
2018-Jun-18 02:00N 22°45' E 120°01'611.4
2018-Jun-18 01:30N 22°50' E 119°57'612.8
2018-Jun-18 01:00N 22°56' E 119°56'  
2018-Jun-14 00:15N 35°02' E 129°09'312.3
2018-Jun-14 00:00N 35°04' E 129°07'2 4.0
2018-Jun-13 23:28N 35°06' E 129°05'0 0.0
2018-Jun-13 23:01N 35°06' E 129°05'0 0.0
2018-Jun-13 22:28N 35°06' E 129°05'0 0.0
2018-Jun-13 21:58N 35°06' E 129°05'0 0.0
2018-Jun-13 21:28N 35°06' E 129°05'0 0.0
2018-Jun-13 21:01N 35°06' E 129°05'0 0.0
2018-Jun-13 20:28N 35°06' E 129°05'0 0.0
2018-Jun-13 19:58N 35°06' E 129°05'0 0.0
2018-Jun-13 19:28N 35°06' E 129°05'0 0.0
2018-Jun-13 18:58N 35°06' E 129°05'0 0.0
2018-Jun-13 18:28N 35°06' E 129°05'0 0.0
2018-Jun-13 17:58N 35°06' E 129°05'0 0.0
2018-Jun-13 17:31N 35°06' E 129°05'0 0.0
2018-Jun-13 16:58N 35°06' E 129°05'0 0.0
2018-Jun-13 16:28N 35°06' E 129°05'0 0.0
2018-Jun-13 15:58N 35°06' E 129°05'0 0.0
2018-Jun-13 15:31N 35°06' E 129°05'0 0.0
2018-Jun-13 14:58N 35°06' E 129°05'0 0.0
2018-Jun-13 14:28N 35°06' E 129°05'0 0.0
2018-Jun-13 13:58N 35°06' E 129°05'0 0.0
2018-Jun-13 13:28N 35°06' E 129°05'0 0.0
2018-Jun-13 12:58N 35°06' E 129°05'0 0.0
2018-Jun-13 12:28N 35°06' E 129°05'0 0.0
2018-Jun-13 11:55N 35°06' E 129°05'0 0.0
2018-Jun-13 11:28N 35°06' E 129°05'2 3.6
2018-Jun-13 11:00N 35°05' E 129°06'5 8.5
2018-Jun-13 10:27N 35°01' E 129°09'  
2018-Jun-09 12:20N 18°04' W 063°05'0 0.0
2018-Jun-09 11:56N 18°04' W 063°05'0 0.0
2018-Jun-09 11:26N 18°04' W 063°05'0 0.0
2018-Jun-09 10:56N 18°04' W 063°05'0 0.0
2018-Jun-09 10:27N 18°04' W 063°05'0 0.0
2018-Jun-09 09:53N 18°04' W 063°05'0 0.0
2018-Jun-09 09:14N 18°04' W 063°05'0 0.0
2018-Jun-09 08:59N 18°04' W 063°05'0 0.0
2018-Jun-09 08:29N 18°04' W 063°05'0 0.0
2018-Jun-09 07:56N 18°04' W 063°05'0 0.0
2018-Jun-09 07:29N 18°04' W 063°05'0 0.0
2018-Jun-09 06:59N 18°04' W 063°05'0 0.0
2018-Jun-09 06:17N 18°04' W 063°05'0 0.0
2018-Jun-09 05:59N 18°04' W 063°05'0 0.0
2018-Jun-09 05:29N 18°04' W 063°05'0 0.0
2018-Jun-09 04:47N 18°04' W 063°05'0 0.0
2018-Jun-09 04:29N 18°04' W 063°05'0 0.0
2018-Jun-09 03:59N 18°04' W 063°05'0 0.0
2018-Jun-09 03:29N 18°04' W 063°05'0 0.0
2018-Jun-09 02:59N 18°04' W 063°05'0 0.0
2018-Jun-09 02:20N 18°04' W 063°05'0 0.0
2018-Jun-09 01:50N 18°04' W 063°05'0 0.0
2018-Jun-09 01:23N 18°04' W 063°05'0 0.0
2018-Jun-09 00:53N 18°04' W 063°05'0 0.0
2018-Jun-09 00:17N 18°04' W 063°05'0 0.0
2018-Jun-08 23:39N 18°04' W 063°05'0 0.0
2018-Jun-08 23:23N 18°04' W 063°05'0 0.0
2018-Jun-08 22:53N 18°04' W 063°05'0 0.0
2018-Jun-08 22:23N 18°04' W 063°05'0 0.0
2018-Jun-08 21:38N 18°04' W 063°05'10290352799.8
2018-Jun-08 21:36N 22°54' E 119°55'216.7
2018-Jun-08 21:30N 22°53' E 119°56'1029160536.5
2018-Jun-08 21:20N 18°04' W 063°05'1029731549.6
2018-Jun-08 21:00N 22°45' E 119°58'1029759313.3
2018-Jun-08 20:50N 18°04' W 063°05'1030331567.1
2018-Jun-08 20:30N 22°40' E 120°01'10303148961.3
2018-Jun-08 20:26N 18°04' W 063°05'1030923912.5
2018-Jun-08 20:00N 22°35' E 120°04'1030983774.7
2018-Jun-08 19:53N 18°04' W 063°05'1031526987.9
2018-Jun-08 19:30N 22°33' E 120°10'10315151573.0
2018-Jun-08 19:26N 18°04' W 063°05'1032124221.7
2018-Jun-08 19:01N 22°33' E 120°16'10321139684.6
2018-Jun-08 18:56N 18°04' W 063°05'0 0.0
2018-Jun-08 18:29N 18°04' W 063°05'10323186755.1
2018-Jun-08 18:26N 22°34' E 120°19'1032320984.9
2018-Jun-08 17:56N 18°04' W 063°05'1032395538.0
2018-Jun-08 17:50N 22°34' E 120°19'1032330387.8
2018-Jun-08 17:29N 18°04' W 063°05'0 0.0
2018-Jun-08 16:56N 18°04' W 063°05'1032333541.8
2018-Jun-08 16:38N 22°34' E 120°19'1032352790.2
2018-Jun-08 16:26N 18°04' W 063°05'103232186134.2
2018-Jun-08 16:26N 22°34' E 120°19'0 0.0
2018-Jun-08 15:50N 22°34' E 120°19'10323108035.7
2018-Jun-08 15:44N 18°04' W 063°05'0 0.0
2018-Jun-08 15:29N 18°04' W 063°05'10323187698.3
2018-Jun-08 15:26N 22°34' E 120°19'1032323198.7
2018-Jun-08 14:59N 18°04' W 063°05'10323190586.1
2018-Jun-08 14:56N 22°34' E 120°19'1032323169.8
2018-Jun-08 14:29N 18°04' W 063°05'10323187698.3
2018-Jun-08 14:26N 22°34' E 120°19'1032323184.2
2018-Jun-08 13:59N 18°04' W 063°05'10323188651.1
2018-Jun-08 13:56N 22°34' E 120°19'1032323184.2
2018-Jun-08 13:29N 18°04' W 063°05'  

Dump ship's entire track history